KARW

Beaufort County Airport

Beaufort, South Carolina, USA
METAR KARW 191955Z AUTO 21009KT 7SM CLR 32/25 A2993 RMK AO2
Observed Flight Rules
Jun-19 @ 19:55 UTC (25 minutes ago) Visual Flight Rules
Wind Visibility Clouds
210° at 9 knots 7 miles
  • Clear skies
Temperatures Readings
Current 32°C / 90°F
Dewpoint 25°C / 77°F
Humidity 67%
Altimeter 29.93" Hg
Pressure 1014 hPa
Elevation 4
METAR KARW 191955Z AUTO 21009KT 7SM CLR 32/25 A2993 RMK AO2
Observed Flight Rules
Jun-19 @ 19:55 UTC
(25 minutes ago)
VFR
Wind Visibility
210° at 9 knots 7 miles
Clouds
  • Clear skies
Temperature Dewpoint
32°C / 90°F 25°C / 77°F
Humidity Altimeter Pressure
67% 29.93" Hg 1014 hPa